Etusivu
METAR-TAF:

METAR-TAF

Lentoasemat :

Pekingin kansainvälinen lentoasema

Peking, Kiina

Leveyspiiri: 39-56N, Pituuspiiri: 116-17E, korkeus merenpinnasta: 55 m

Tämänhetkinen sää

Tämä raportti tehtiin 28 minuuttia sitten, kello 09.00 UTC
Tuuli 4 kn etelästä/kaakosta, vaihdellen idän/kaakon ja lännen välillä
Lämpötila 31°C
Kosteus 49%
Ilmanpaine 1005 hPa
Näkyvyys 10 km tai enemmän
ei pilviä alle 1500 m:ssä eikä cumulonimbus-pilviä

METAR: ZBAA 130900Z 16002MPS 120V270 CAVOK 31/19 Q1005 NOSIG

Aika: 17:28 (09:28 UTC)

Sääennuste

Tämä raportti tehtiin 6 tuntia ja 18 minuuttia sitten, kello 03.10 UTC
Ennuste voimassa 13. päivästä klo 06 UTC - 14. päivään klo 06 UTC
Tuuli 8 kn etelästä
Näkyvyys: 3500 m
utua

TAF: ZBAA 130310Z 1306/1406 18004MPS 3500 BR NSC TX28/1307Z TN20/1321Z

Säähavainnot ja -ennusteet yli 4000 lentoasemalta (METAR- ja TAF-raportit).

Käytössä olevat sääasemat on merkitty karttaan keltaisilla ja punaisilla pisteillä.

Aseta hiiri pisteen päälle nähdäksesi sääaseman nimen.

Klikkaa sitten nähdäksesi säähavainnot ja -ennusteet.

Kartan vaihtaminen: klikkaa mustalla rastilla varustettuja vihreitä pisteitä, niin voit zoomata sisään; viivalla varustettua vihreää pistettä, niin voit zoomata ulos tai vihreitä nuolia, niin pääset viereisille kartoille.


METAR-TAF: